Temp: 15.9°C   Baro: 1010.1mb
  Wind: 13.0mph   Dir: WSW (252°)
  Rain: 0.4mm (0.0mm/hr)
  Sun: 404W/m2  Humidity: 73%

Historic data

Bath Spa Weather Station Historical Data
Daily Summary for April 18, 2024 Units:  Metric    English   Both
Daily Weekly Monthly Yearly Custom
  High: Low: Average:
Temperature: 12.3 °C 1.5 °C 7.2 °C
Dew Point: 6.7 °C -1.3 °C 2.6 °C
Humidity: 87% 40.4% 74%
Wind Speed: 21.2km/h 0km/h 7.9km/h
Wind Gust: 33.8km/h - -
Wind- - West
Pressure: 1025.6 hPa 1020.5 hPa -
Precipitation: 0 mm    
Historical Graphs
 
 
Tabular Data for April 18, 2024
Time Temperature Dew Point Pressure Wind Wind Speed Wind Gust Humidity Rainfall Rate (Hourly) solar
00:09 5.3 °C 1.7 °C 1020.5 hPa NNW 2.7 km/h 8 km/h 77% 0 mm 0 W/m2
00:14 5.2 °C 1.6 °C 1020.5 hPa NNW 1.9 km/h 3.2 km/h 77% 0 mm 0 W/m2
00:19 5.1 °C 1.4 °C 1020.5 hPa NNW 1.9 km/h 4.8 km/h 77% 0 mm 0 W/m2
00:24 4.9 °C 1.2 °C 1020.9 hPa NNW 2.4 km/h 4.8 km/h 77% 0 mm 0 W/m2
00:29 4.8 °C 1.2 °C 1020.9 hPa NNW 2.1 km/h 4.8 km/h 77.8% 0 mm 0 W/m2
00:34 4.7 °C 1.2 °C 1020.9 hPa NNW 1 km/h 3.2 km/h 78% 0 mm 0 W/m2
00:39 4.5 °C 1 °C 1020.9 hPa NNW 2.6 km/h 4.8 km/h 78% 0 mm 0 W/m2
00:44 4.3 °C 0.8 °C 1021.2 hPa NNW 0.8 km/h 4.8 km/h 78% 0 mm 0 W/m2
00:49 4.3 °C 0.9 °C 1021.2 hPa NNW 2.6 km/h 4.8 km/h 78.8% 0 mm 0 W/m2
00:54 4.3 °C 1 °C 1021.2 hPa WNW 2.7 km/h 9.7 km/h 79% 0 mm 0 W/m2
00:59 4.4 °C 1.1 °C 1021.2 hPa WNW 2.4 km/h 4.8 km/h 79% 0 mm 0 W/m2
01:04 4.2 °C 0.9 °C 1021.2 hPa WNW 2.1 km/h 4.8 km/h 79% 0 mm 0 W/m2
01:09 4.1 °C 0.8 °C 1021.2 hPa WNW 2.3 km/h 4.8 km/h 79% 0 mm 0 W/m2
01:14 3.9 °C 0.6 °C 1021.2 hPa WNW 2.6 km/h 4.8 km/h 79% 0 mm 0 W/m2
01:19 3.8 °C 0.7 °C 1021.2 hPa WNW 2.3 km/h 6.4 km/h 79.6% 0 mm 0 W/m2
01:24 3.7 °C 0.5 °C 1021.2 hPa WNW 2.9 km/h 6.4 km/h 79.4% 0 mm 0 W/m2
01:29 3.7 °C 0.7 °C 1021.2 hPa WNW 2.1 km/h 6.4 km/h 80% 0 mm 0 W/m2
01:34 3.7 °C 0.6 °C 1021.6 hPa WNW 2.1 km/h 4.8 km/h 80% 0 mm 0 W/m2
01:39 3.6 °C 0.5 °C 1021.6 hPa WNW 0.8 km/h 4.8 km/h 80% 0 mm 0 W/m2
01:44 3.6 °C 0.5 °C 1021.6 hPa WNW 2.1 km/h 4.8 km/h 80% 0 mm 0 W/m2
01:49 3.5 °C 0.4 °C 1021.6 hPa WNW 1.9 km/h 4.8 km/h 80% 0 mm 0 W/m2
01:54 3.5 °C 0.4 °C 1021.6 hPa WNW 2.7 km/h 4.8 km/h 80% 0 mm 0 W/m2
01:59 3.7 °C 0.6 °C 1021.9 hPa NNW 3.2 km/h 8 km/h 80% 0 mm 0 W/m2
02:03 3.7 °C 0.7 °C 1021.9 hPa NNW 1.9 km/h 4.8 km/h 80.5% 0 mm 0 W/m2
02:09 3.7 °C 0.7 °C 1021.9 hPa NNW 0.6 km/h 4.8 km/h 81% 0 mm 0 W/m2
02:14 3.6 °C 0.6 °C 1021.9 hPa NNW 1.9 km/h 4.8 km/h 81% 0 mm 0 W/m2
02:19 3.6 °C 0.6 °C 1021.9 hPa NNW 3.1 km/h 4.8 km/h 81% 0 mm 0 W/m2
02:24 3.7 °C 0.7 °C 1021.9 hPa NW 3.7 km/h 8 km/h 81% 0 mm 0 W/m2
02:29 3.7 °C 0.7 °C 1021.9 hPa WNW 3.9 km/h 6.4 km/h 81% 0 mm 0 W/m2
02:34 3.6 °C 0.6 °C 1021.9 hPa WNW 3.4 km/h 6.4 km/h 81% 0 mm 0 W/m2
02:39 3.7 °C 0.7 °C 1021.9 hPa WNW 3.2 km/h 6.4 km/h 81% 0 mm 0 W/m2
02:44 3.6 °C 0.6 °C 1021.9 hPa WNW 3.4 km/h 6.4 km/h 81% 0 mm 0 W/m2
02:49 3.5 °C 0.7 °C 1021.9 hPa WNW 5 km/h 8 km/h 81.8% 0 mm 0 W/m2
02:54 3.4 °C 0.7 °C 1021.9 hPa NW 3.4 km/h 6.4 km/h 82% 0 mm 0 W/m2
02:59 3.4 °C 0.6 °C 1021.9 hPa NW 3.9 km/h 8 km/h 82% 0 mm 0 W/m2
03:04 3.4 °C 0.6 °C 1022.2 hPa NW 2.7 km/h 6.4 km/h 82% 0 mm 0 W/m2
03:09 3.3 °C 0.5 °C 1022.2 hPa NW 4.2 km/h 8 km/h 82% 0 mm 0 W/m2
03:14 3.3 °C 0.5 °C 1022.2 hPa WNW 2.4 km/h 8 km/h 82% 0 mm 0 W/m2
03:19 3.2 °C 0.4 °C 1022.2 hPa WNW 1.4 km/h 6.4 km/h 82% 0 mm 0 W/m2
03:24 3.2 °C 0.4 °C 1022.2 hPa NW 3.7 km/h 8 km/h 82% 0 mm 0 W/m2
03:29 3.3 °C 0.6 °C 1022.6 hPa NW 3.4 km/h 6.4 km/h 82.4% 0 mm 0 W/m2
03:34 3.3 °C 0.7 °C 1022.6 hPa NW 2.7 km/h 8 km/h 83% 0 mm 0 W/m2
03:39 3.3 °C 0.6 °C 1022.6 hPa NW 4.3 km/h 8 km/h 82.6% 0 mm 0 W/m2
03:44 3.3 °C 0.4 °C 1022.6 hPa NW 4 km/h 8 km/h 82% 0 mm 0 W/m2
03:49 3.2 °C 0.5 °C 1022.6 hPa NW 4.5 km/h 9.7 km/h 82.2% 0 mm 0 W/m2
03:54 3.3 °C 0.7 °C 1022.6 hPa NW 3.5 km/h 8 km/h 83% 0 mm 0 W/m2
03:59 3.3 °C 0.7 °C 1022.6 hPa NW 4.7 km/h 8 km/h 83% 0 mm 0 W/m2
04:04 3.1 °C 0.5 °C 1022.9 hPa NW 4 km/h 8 km/h 83% 0 mm 0 W/m2
04:09 3 °C 0.4 °C 1022.9 hPa NW 3.2 km/h 8 km/h 83% 0 mm 0 W/m2
04:14 3 °C 0.4 °C 1022.9 hPa NW 3.5 km/h 8 km/h 83% 0 mm 0 W/m2
04:19 2.9 °C 0.3 °C 1022.9 hPa NW 2.1 km/h 8 km/h 83% 0 mm 0 W/m2
04:24 2.8 °C 0.2 °C 1022.9 hPa NW 0.6 km/h 4.8 km/h 83% 0 mm 0 W/m2
04:29 2.8 °C 0.2 °C 1022.9 hPa NW 4.5 km/h 12.9 km/h 83% 0 mm 0 W/m2
04:34 2.8 °C 0.2 °C 1022.9 hPa NW 2.3 km/h 8 km/h 83% 0 mm 0 W/m2
04:39 2.8 °C 0.2 °C 1023.2 hPa NW 0.8 km/h 4.8 km/h 83% 0 mm 0 W/m2
04:44 2.8 °C 0.3 °C 1023.2 hPa NNW 2.1 km/h 9.7 km/h 83.2% 0 mm 0 W/m2
04:49 2.8 °C 0.4 °C 1023.2 hPa North 1.9 km/h 9.7 km/h 84% 0 mm 0 W/m2
04:54 2.8 °C 0.4 °C 1022.9 hPa NW 1.4 km/h 6.4 km/h 84% 0 mm 0 W/m2
04:59 2.8 °C 0.4 °C 1023.2 hPa NW 1.4 km/h 4.8 km/h 84% 0 mm 0 W/m2
05:04 2.8 °C 0.3 °C 1023.2 hPa NNW 1.6 km/h 4.8 km/h 84% 0 mm 0 W/m2
05:09 2.6 °C 0.2 °C 1023.2 hPa NNW 1.9 km/h 6.4 km/h 84% 0 mm 0 W/m2
05:14 2.4 °C 0.1 °C 1023.2 hPa NNW 1.8 km/h 4.8 km/h 84% 0 mm 0 W/m2
05:19 2.3 °C -0.1 °C 1023.2 hPa NNW 1 km/h 3.2 km/h 84% 0 mm 0 W/m2
05:24 2.2 °C -0.2 °C 1023.2 hPa NNW 0.3 km/h 3.2 km/h 84% 0 mm 0 W/m2
05:29 2.3 °C -0.1 °C 1023.2 hPa NNW 2.9 km/h 8 km/h 84% 0 mm 0 W/m2
05:34 2.5 °C 0.1 °C 1023.2 hPa NNW 0.6 km/h 4.8 km/h 84% 0 mm 0 W/m2
05:39 2.5 °C 0.1 °C 1023.2 hPa NNW 0.3 km/h 4.8 km/h 84% 0 mm 0 W/m2
05:44 2.6 °C 0.3 °C 1023.2 hPa NNW 1.4 km/h 4.8 km/h 85% 0 mm 0 W/m2
05:49 2.6 °C 0.3 °C 1023.6 hPa NNW 0.8 km/h 3.2 km/h 85% 0 mm 0 W/m2
05:54 2.4 °C 0.1 °C 1023.6 hPa NNW 0.3 km/h 3.2 km/h 85% 0 mm 0 W/m2
05:59 2.3 °C 0 °C 1023.6 hPa NNW 0.3 km/h 1.6 km/h 85% 0 mm 0 W/m2
06:04 2.2 °C -0.1 °C 1023.9 hPa NNW 1.6 km/h 4.8 km/h 85% 0 mm 0 W/m2
06:09 2.2 °C -0.1 °C 1023.9 hPa West 1.3 km/h 6.4 km/h 85% 0 mm 5 W/m2
06:14 2.1 °C -0.2 °C 1023.9 hPa West 5.1 km/h 8 km/h 85% 0 mm 7 W/m2
06:19 1.9 °C -0.4 °C 1023.9 hPa West 4.3 km/h 6.4 km/h 85% 0 mm 9 W/m2
06:24 1.9 °C -0.4 °C 1023.9 hPa West 3.5 km/h 4.8 km/h 85% 0 mm 11 W/m2
06:29 1.8 °C -0.2 °C 1023.9 hPa Calm   3.2 km/h 86% 0 mm 14 W/m2
06:34 1.8 °C -0.3 °C 1024.3 hPa West 0.6 km/h 3.2 km/h 86% 0 mm 16 W/m2
06:39 1.7 °C -0.4 °C 1024.3 hPa Calm     86% 0 mm 18 W/m2
06:44 1.6 °C -0.5 °C 1024.3 hPa Calm     86% 0 mm 21 W/m2
06:49 1.6 °C -0.5 °C 1024.3 hPa Calm     86% 0 mm 26 W/m2
06:54 1.5 °C -0.6 °C 1024.6 hPa Calm     86% 0 mm 30 W/m2
06:58 1.5 °C -0.6 °C 1024.6 hPa Calm     86% 0 mm 30 W/m2
07:04 1.5 °C -0.6 °C 1024.6 hPa Calm     86% 0 mm 30 W/m2
07:09 1.7 °C -0.4 °C 1024.6 hPa Calm     86% 0 mm 32 W/m2
07:14 2 °C 0.1 °C 1024.6 hPa Calm     87% 0 mm 39 W/m2
07:19 2.1 °C 0.2 °C 1024.9 hPa West 2.6 km/h 4.8 km/h 87% 0 mm 46 W/m2
07:24 2.2 °C 0.3 °C 1024.9 hPa West 3.2 km/h 4.8 km/h 87% 0 mm 56 W/m2
07:29 2.3 °C 0.4 °C 1024.9 hPa West 2.3 km/h 4.8 km/h 87% 0 mm 70 W/m2
07:34 2.4 °C 0.6 °C 1024.9 hPa West 1.9 km/h 4.8 km/h 87% 0 mm 90 W/m2
07:39 2.6 °C 0.7 °C 1024.9 hPa West 2.1 km/h 4.8 km/h 87% 0 mm 107 W/m2
07:44 2.7 °C 0.8 °C 1024.9 hPa West 2.6 km/h 4.8 km/h 87% 0 mm 121 W/m2
07:49 2.8 °C 0.9 °C 1024.9 hPa West 1.1 km/h 3.2 km/h 87% 0 mm 134 W/m2
07:54 3 °C 1 °C 1024.9 hPa West 0.3 km/h 3.2 km/h 87% 0 mm 132 W/m2
07:59 3.2 °C 1.2 °C 1024.9 hPa West 1.4 km/h 3.2 km/h 87% 0 mm 169 W/m2
08:04 3.3 °C 1.3 °C 1025.3 hPa West 2.6 km/h 4.8 km/h 87% 0 mm 190 W/m2
08:09 3.5 °C 1.4 °C 1025.3 hPa West 2.7 km/h 4.8 km/h 86.8% 0 mm 206 W/m2
08:14 3.7 °C 1.7 °C 1025.3 hPa West 1.9 km/h 3.2 km/h 86.6% 0 mm 202 W/m2
08:19 3.8 °C 1.7 °C 1025.3 hPa West 4.5 km/h 6.4 km/h 86% 0 mm 251 W/m2
08:24 3.9 °C 1.8 °C 1025.3 hPa West 2.7 km/h 6.4 km/h 86% 0 mm 250 W/m2
08:29 4 °C 1.9 °C 1025.3 hPa West 2.4 km/h 6.4 km/h 86% 0 mm 269 W/m2
08:34 4.3 °C 2.2 °C 1025.3 hPa West 3.2 km/h 8 km/h 85.8% 0 mm 283 W/m2
08:39 4.6 °C 2.3 °C 1025.3 hPa WSW 3.5 km/h 6.4 km/h 85% 0 mm 297 W/m2
08:44 4.8 °C 2.4 °C 1025.3 hPa WSW 3.9 km/h 9.7 km/h 85% 0 mm 318 W/m2
08:49 5.1 °C 2.7 °C 1025.3 hPa SW 3.2 km/h 9.7 km/h 84.2% 0 mm 334 W/m2
08:54 5.3 °C 2.8 °C 1025.6 hPa WSW 4.7 km/h 11.3 km/h 84% 0 mm 345 W/m2
08:59 5.4 °C 2.8 °C 1025.6 hPa WSW 5.1 km/h 11.3 km/h 83.2% 0 mm 374 W/m2
09:04 5.7 °C 2.9 °C 1025.6 hPa WSW 8.4 km/h 11.3 km/h 83% 0 mm 397 W/m2
09:09 5.7 °C 2.8 °C 1025.6 hPa WSW 6.9 km/h 11.3 km/h 82% 0 mm 408 W/m2
09:14 5.8 °C 3 °C 1025.6 hPa WSW 7.7 km/h 12.9 km/h 81.8% 0 mm 420 W/m2
09:19 5.8 °C 2.8 °C 1025.6 hPa SW 7.9 km/h 12.9 km/h 81% 0 mm 432 W/m2
09:24 5.9 °C 2.9 °C 1025.6 hPa WSW 7.2 km/h 11.3 km/h 80.6% 0 mm 452 W/m2
09:29 6.2 °C 2.9 °C 1025.6 hPa West 2.7 km/h 9.7 km/h 80% 0 mm 462 W/m2
09:34 6.4 °C 3.2 °C 1025.6 hPa WSW 5.6 km/h 11.3 km/h 80% 0 mm 475 W/m2
09:39 6.7 °C 3.3 °C 1025.6 hPa WSW 4.7 km/h 9.7 km/h 79.2% 0 mm 483 W/m2
09:44 6.8 °C 3.4 °C 1025.6 hPa WSW 5.1 km/h 8 km/h 79% 0 mm 503 W/m2
09:49 6.9 °C 3.3 °C 1025.6 hPa WSW 2.6 km/h 8 km/h 78% 0 mm 512 W/m2
09:54 7.1 °C 3.3 °C 1025.6 hPa WSW 3.9 km/h 8 km/h 77.2% 0 mm 538 W/m2
09:59 7.2 °C 3.3 °C 1025.6 hPa West 5 km/h 9.7 km/h 77% 0 mm 564 W/m2
10:04 7.2 °C 3.4 °C 1025.6 hPa West 2.4 km/h 6.4 km/h 77% 0 mm 582 W/m2
10:09 7.7 °C 3.7 °C 1025.6 hPa WSW 2.7 km/h 8 km/h 76% 0 mm 633 W/m2
10:14 7.8 °C 3.6 °C 1025.6 hPa SW 3.7 km/h 8 km/h 75% 0 mm 647 W/m2
10:19 7.9 °C 3.6 °C 1025.6 hPa West 5 km/h 8 km/h 74.2% 0 mm 642 W/m2
10:24 7.8 °C 3.5 °C 1025.6 hPa NNW 6.8 km/h 8 km/h 73.8% 0 mm 225 W/m2
10:29 8 °C 3.5 °C 1025.6 hPa NNW 2.1 km/h 6.4 km/h 73% 0 mm 408 W/m2
10:34 8.4 °C 3.7 °C 1025.6 hPa North 2.1 km/h 6.4 km/h 72.6% 0 mm 408 W/m2
10:39 8.2 °C 3.5 °C 1025.6 hPa NW 1.3 km/h 6.4 km/h 72% 0 mm 717 W/m2
10:44 8.2 °C 3.5 °C 1025.6 hPa WNW 4.7 km/h 11.3 km/h 72% 0 mm 703 W/m2
10:49 8.3 °C 3.4 °C 1025.6 hPa West 7.6 km/h 11.3 km/h 71.4% 0 mm 714 W/m2
10:54 8.1 °C 3.2 °C 1025.6 hPa West 5.8 km/h 12.9 km/h 71% 0 mm 227 W/m2
10:59 8 °C 3.1 °C 1025.6 hPa West 4.3 km/h 9.7 km/h 71% 0 mm 383 W/m2
11:04 8 °C 3 °C 1025.6 hPa West 3.4 km/h 4.8 km/h 70.6% 0 mm 118 W/m2
11:09 8.2 °C 3.1 °C 1025.6 hPa South 4.5 km/h 9.7 km/h 70% 0 mm 686 W/m2
11:14 8.7 °C 3.4 °C 1025.6 hPa West 4.8 km/h 8 km/h 69.6% 0 mm 691 W/m2
11:19 9.2 °C 3.7 °C 1025.6 hPa West 4 km/h 9.7 km/h 68.6% 0 mm 705 W/m2
11:24 9.2 °C 3.4 °C 1025.6 hPa SW 2.7 km/h 9.7 km/h 67.2% 0 mm 717 W/m2
11:29 9.5 °C 3.4 °C 1025.6 hPa WSW 5.5 km/h 8 km/h 65.8% 0 mm 765 W/m2
11:34 9.5 °C 3.2 °C 1025.6 hPa South 5.1 km/h 9.7 km/h 65% 0 mm 773 W/m2
11:39 9.3 °C 3.2 °C 1025.6 hPa WSW 7.4 km/h 12.9 km/h 65.8% 0 mm 782 W/m2
11:44 9.4 °C 3.3 °C 1025.6 hPa WSW 6.1 km/h 12.9 km/h 65.6% 0 mm 737 W/m2
11:49 9.8 °C 3.5 °C 1025.3 hPa WSW 5.1 km/h 11.3 km/h 64.8% 0 mm 733 W/m2
11:54 10.2 °C 3.8 °C 1025.3 hPa WSW 4.7 km/h 11.3 km/h 64.8% 0 mm 735 W/m2
11:59 10.2 °C 3.7 °C 1025.3 hPa West 4.7 km/h 12.9 km/h 64% 0 mm 742 W/m2
12:04 10.1 °C 3.6 °C 1025.3 hPa West 4.7 km/h 12.9 km/h 64% 0 mm 744 W/m2
12:09 10.2 °C 3.6 °C 1025.3 hPa WSW 2.6 km/h 9.7 km/h 63.6% 0 mm 754 W/m2
12:14 10.4 °C 3.7 °C 1025.3 hPa WNW 4.7 km/h 11.3 km/h 63% 0 mm 761 W/m2
12:19 10.8 °C 3.9 °C 1025.3 hPa West 5.8 km/h 14.5 km/h 62.8% 0 mm 809 W/m2
12:24 10.7 °C 3.8 °C 1025.3 hPa WSW 7.7 km/h 12.9 km/h 62.8% 0 mm 819 W/m2
12:29 10.8 °C 3.7 °C 1024.9 hPa SW 3.9 km/h 11.3 km/h 61.4% 0 mm 854 W/m2
12:34 11 °C 3.5 °C 1024.9 hPa SW 4.3 km/h 14.5 km/h 60% 0 mm 719 W/m2
12:39 10.7 °C 3.4 °C 1024.9 hPa South 3.4 km/h 14.5 km/h 60.8% 0 mm 853 W/m2
12:44 11.4 °C 4.4 °C 1024.9 hPa SW 2.1 km/h 6.4 km/h 62% 0 mm 925 W/m2
12:49 12.1 °C 4.4 °C 1024.9 hPa SW 5.6 km/h 14.5 km/h 59.5% 0 mm 691 W/m2
12:54 11.8 °C 4.3 °C 1024.9 hPa West 5 km/h 14.5 km/h 60% 0 mm 798 W/m2
12:59 11.6 °C 4.1 °C 1024.9 hPa SW 8.4 km/h 14.5 km/h 59.8% 0 mm 838 W/m2
13:04 11.7 °C 4.1 °C 1024.9 hPa SW 8 km/h 14.5 km/h 59.2% 0 mm 846 W/m2
13:09 11.6 °C 4.1 °C 1024.9 hPa SW 10.6 km/h 22.5 km/h 60% 0 mm 846 W/m2
13:14 11.3 °C 4.2 °C 1024.9 hPa WSW 8.7 km/h 20.9 km/h 61.6% 0 mm 956 W/m2
13:19 11.7 °C 4.2 °C 1024.9 hPa West 11.6 km/h 24.1 km/h 59.6% 0 mm 956 W/m2
13:24 11.7 °C 3.5 °C 1024.9 hPa WNW 11.9 km/h 19.3 km/h 57.2% 0 mm 926 W/m2
13:29 11.6 °C 3.4 °C 1024.6 hPa SW 11.3 km/h 20.9 km/h 57% 0 mm 1016 W/m2
13:34 11.8 °C 3.8 °C 1024.6 hPa WNW 8.4 km/h 19.3 km/h 57.8% 0 mm 668 W/m2
13:39 11.7 °C 3.9 °C 1024.6 hPa West 10 km/h 19.3 km/h 59% 0 mm 592 W/m2
13:44 11.8 °C 3.9 °C 1024.6 hPa West 10.5 km/h 20.9 km/h 58.4% 0 mm 534 W/m2
13:49 11.6 °C 4.1 °C 1024.3 hPa WSW 7.9 km/h 17.7 km/h 59.6% 0 mm 517 W/m2
13:54 11.6 °C 4.2 °C 1024.3 hPa WSW 9 km/h 19.3 km/h 60.4% 0 mm 468 W/m2
13:59 11.5 °C 3.9 °C 1024.3 hPa West 7.6 km/h 17.7 km/h 59.4% 0 mm 951 W/m2
14:04 11.8 °C 4.1 °C 1024.3 hPa West 9.5 km/h 19.3 km/h 59% 0 mm 837 W/m2
14:09 12.1 °C 3.9 °C 1024.3 hPa West 8.9 km/h 19.3 km/h 57.2% 0 mm 865 W/m2
14:14 12.3 °C 3.6 °C 1024.3 hPa West 14.2 km/h 20.9 km/h 55% 0 mm 960 W/m2
14:19 12.2 °C 3.5 °C 1024.3 hPa WNW 7.6 km/h 20.9 km/h 55.4% 0 mm 707 W/m2
14:24 11.8 °C 3.5 °C 1024.3 hPa WNW 10.9 km/h 24.1 km/h 56.6% 0 mm 970 W/m2
14:29 11.8 °C 3.6 °C 1024.3 hPa West 15.8 km/h 20.9 km/h 57% 0 mm 689 W/m2
14:34 11.8 °C 3.7 °C 1024.3 hPa WSW 10.9 km/h 20.9 km/h 57.2% 0 mm 830 W/m2
14:39 12.1 °C 3.4 °C 1024.3 hPa West 11.4 km/h 27.4 km/h 55.4% 0 mm 555 W/m2
14:44 11.8 °C 2 °C 1024.3 hPa West 12.9 km/h 25.7 km/h 51.2% 0 mm 534 W/m2
14:49 11.7 °C 2.4 °C 1024.3 hPa WSW 11.4 km/h 19.3 km/h 53% 0 mm 555 W/m2
14:54 11.8 °C 2.5 °C 1024.3 hPa WSW 13.5 km/h 22.5 km/h 52.8% 0 mm 912 W/m2
14:59 11.8 °C 2.2 °C 1024.3 hPa WSW 12.7 km/h 24.1 km/h 51.6% 0 mm 613 W/m2
15:04 11.9 °C 2.4 °C 1023.9 hPa WSW 10.1 km/h 20.9 km/h 52% 0 mm 921 W/m2
15:09 12.3 °C 2.3 °C 1023.9 hPa West 19 km/h 29 km/h 50.4% 0 mm 446 W/m2
15:14 11.9 °C 1.5 °C 1023.9 hPa WSW 14.2 km/h 19.3 km/h 49% 0 mm 404 W/m2
15:19 11.7 °C 1.5 °C 1023.9 hPa West 18 km/h 29 km/h 49.6% 0 mm 675 W/m2
15:24 11.7 °C 1.9 °C 1023.9 hPa WNW 17.7 km/h 29 km/h 51.2% 0 mm 578 W/m2
15:29 11.6 °C 2.6 °C 1023.9 hPa West 13.2 km/h 33.8 km/h 54% 0 mm 603 W/m2
15:34 11.7 °C 3.2 °C 1023.9 hPa WSW 15.4 km/h 33.8 km/h 56% 0 mm 471 W/m2
15:39 11.7 °C 3.4 °C 1023.6 hPa West 15.8 km/h 29 km/h 57% 0 mm 582 W/m2
15:44 11.8 °C 3.6 °C 1023.6 hPa WSW 12.9 km/h 29 km/h 57.2% 0 mm 738 W/m2
15:49 11.9 °C 3.1 °C 1023.6 hPa West 16.7 km/h 30.6 km/h 54.6% 0 mm 738 W/m2
15:54 11.8 °C 1.2 °C 1023.6 hPa West 21.2 km/h 29 km/h 48.4% 0 mm 710 W/m2
15:59 11.8 °C -0.1 °C 1023.6 hPa West 15.1 km/h 27.4 km/h 43.8% 0 mm 631 W/m2
16:04 11.8 °C -1.2 °C 1023.6 hPa West 13.5 km/h 27.4 km/h 40.4% 0 mm 475 W/m2
16:09 11.6 °C -1.2 °C 1023.6 hPa West 13.5 km/h 27.4 km/h 41.2% 0 mm 461 W/m2
16:14 11.3 °C -1.3 °C 1023.6 hPa West 17.1 km/h 27.4 km/h 41.4% 0 mm 429 W/m2
16:19 11.3 °C -1.2 °C 1023.6 hPa West 14.5 km/h 24.1 km/h 42.2% 0 mm 413 W/m2
16:24 11.4 °C 0 °C 1023.6 hPa SW 12.9 km/h 22.5 km/h 45.4% 0 mm 445 W/m2
16:29 11.3 °C 0.7 °C 1023.6 hPa West 13.2 km/h 24.1 km/h 48% 0 mm 320 W/m2
16:34 11.2 °C 1.1 °C 1023.2 hPa WSW 10.1 km/h 19.3 km/h 49.6% 0 mm 290 W/m2
16:39 11.4 °C 1.4 °C 1023.2 hPa WSW 10.6 km/h 22.5 km/h 50.4% 0 mm 323 W/m2
16:44 11.3 °C 1.5 °C 1023.2 hPa WNW 16.9 km/h 33.8 km/h 50.8% 0 mm 371 W/m2
16:49 11.2 °C 1.6 °C 1023.2 hPa West 16.7 km/h 25.7 km/h 51.6% 0 mm 243 W/m2
16:54 11.1 °C 2.2 °C 1023.2 hPa West 13.2 km/h 30.6 km/h 54.6% 0 mm 290 W/m2
16:59 10.9 °C 2.8 °C 1023.2 hPa WSW 16.9 km/h 32.2 km/h 57% 0 mm 253 W/m2
17:04 10.7 °C 2.7 °C 1023.2 hPa West 12.6 km/h 32.2 km/h 58% 0 mm 195 W/m2
17:09 10.4 °C 2.9 °C 1023.2 hPa West 11.9 km/h 30.6 km/h 59.6% 0 mm 171 W/m2
17:14 10.3 °C 3 °C 1023.2 hPa West 14.5 km/h 24.1 km/h 60.6% 0 mm 181 W/m2
17:18 10.3 °C 3.2 °C 1023.2 hPa West 11.6 km/h 29 km/h 62% 0 mm 195 W/m2
17:29 10.3 °C 3.4 °C 1023.2 hPa West 17.1 km/h 25.7 km/h 62.5% 0 mm 185 W/m2
17:34 10.2 °C 3.3 °C 1023.2 hPa West 13.5 km/h 27.4 km/h 62.4% 0 mm 176 W/m2
17:35 10.2 °C 3.5 °C 1023.2 hPa West 20.9 km/h 20.9 km/h 63% 0 mm 176 W/m2
17:49 9.9 °C 2.9 °C 1023.2 hPa West 16.7 km/h 30.6 km/h 61.6% 0 mm 142 W/m2
17:54 9.8 °C 2.7 °C 1023.2 hPa West 14.8 km/h 30.6 km/h 61.4% 0 mm 135 W/m2
17:59 9.8 °C 3.1 °C 1023.2 hPa West 15.4 km/h 27.4 km/h 62.8% 0 mm 142 W/m2
18:04 9.8 °C 3.1 °C 1023.2 hPa West 15.4 km/h 25.7 km/h 63% 0 mm 146 W/m2
18:09 9.8 °C 3.3 °C 1023.2 hPa West 16.1 km/h 25.7 km/h 64% 0 mm 146 W/m2
18:14 9.7 °C 3.3 °C 1023.2 hPa West 11.9 km/h 25.7 km/h 64.8% 0 mm 139 W/m2
18:19 9.7 °C 3.4 °C 1023.2 hPa West 9.7 km/h 24.1 km/h 64.8% 0 mm 153 W/m2
18:24 9.8 °C 3.3 °C 1023.2 hPa WSW 14.2 km/h 25.7 km/h 64% 0 mm 162 W/m2
18:29 9.7 °C 3.2 °C 1022.9 hPa WNW 13.8 km/h 27.4 km/h 64% 0 mm 162 W/m2
18:34 9.7 °C 3.3 °C 1022.9 hPa West 11.6 km/h 22.5 km/h 64.6% 0 mm 169 W/m2
18:39 9.7 °C 3.4 °C 1022.9 hPa West 14.8 km/h 30.6 km/h 65% 0 mm 156 W/m2
18:44 9.6 °C 3.6 °C 1022.6 hPa WNW 14.5 km/h 30.6 km/h 65.8% 0 mm 160 W/m2
18:49 9.6 °C 3.9 °C 1022.6 hPa West 17.4 km/h 32.2 km/h 67.4% 0 mm 149 W/m2
18:54 9.4 °C 4 °C 1022.6 hPa West 16.3 km/h 32.2 km/h 69% 0 mm 135 W/m2
18:59 9.4 °C 4.3 °C 1022.6 hPa West 14 km/h 24.1 km/h 70.4% 0 mm 121 W/m2
19:04 9.3 °C 4.4 °C 1022.6 hPa West 20.8 km/h 29 km/h 71.4% 0 mm 116 W/m2
19:09 9.2 °C 4.6 °C 1022.6 hPa WSW 16.4 km/h 29 km/h 73% 0 mm 90 W/m2
19:14 9.2 °C 4.6 °C 1022.6 hPa West 13.5 km/h 25.7 km/h 73.2% 0 mm 70 W/m2
19:19 9.1 °C 4.7 °C 1022.6 hPa West 15.4 km/h 29 km/h 74% 0 mm 56 W/m2
19:24 9 °C 4.8 °C 1022.6 hPa West 11.9 km/h 24.1 km/h 74.8% 0 mm 49 W/m2
19:29 9 °C 4.9 °C 1022.6 hPa West 17.4 km/h 27.4 km/h 75.4% 0 mm 44 W/m2
19:34 8.9 °C 4.9 °C 1022.6 hPa West 16.1 km/h 29 km/h 76% 0 mm 39 W/m2
19:39 8.9 °C 4.9 °C 1022.6 hPa West 13.2 km/h 27.4 km/h 76% 0 mm 25 W/m2
19:44 8.9 °C 5 °C 1022.6 hPa West 13.2 km/h 20.9 km/h 76.4% 0 mm 14 W/m2
19:49 8.9 °C 5.1 °C 1022.6 hPa WNW 16.4 km/h 30.6 km/h 77% 0 mm 12 W/m2
19:54 8.9 °C 5.1 °C 1022.6 hPa WNW 14.8 km/h 29 km/h 77% 0 mm 12 W/m2
19:59 8.8 °C 5.1 °C 1022.6 hPa West 13.8 km/h 30.6 km/h 77% 0 mm 11 W/m2
20:04 8.8 °C 5 °C 1022.6 hPa West 16.7 km/h 30.6 km/h 77% 0 mm 7 W/m2
20:09 8.8 °C 5 °C 1022.2 hPa West 17.4 km/h 29 km/h 77% 0 mm 0 W/m2
20:14 8.8 °C 5 °C 1022.2 hPa West 15.6 km/h 29 km/h 77% 0 mm 0 W/m2
20:19 8.8 °C 5 °C 1022.2 hPa West 16.1 km/h 24.1 km/h 77% 0 mm 0 W/m2
20:24 8.8 °C 5 °C 1022.6 hPa West 18 km/h 29 km/h 77% 0 mm 0 W/m2
20:29 8.8 °C 5 °C 1022.6 hPa West 16.1 km/h 25.7 km/h 77.2% 0 mm 0 W/m2
20:34 8.8 °C 5.2 °C 1022.6 hPa West 14.5 km/h 24.1 km/h 78% 0 mm 0 W/m2
20:39 8.7 °C 5.2 °C 1022.6 hPa West 12.6 km/h 20.9 km/h 78% 0 mm 0 W/m2
20:44 8.7 °C 5.1 °C 1022.6 hPa West 12.6 km/h 20.9 km/h 78% 0 mm 0 W/m2
20:49 8.7 °C 5.1 °C 1022.2 hPa West 20.3 km/h 29 km/h 78% 0 mm 0 W/m2
20:54 8.7 °C 5.1 °C 1022.2 hPa West 14.8 km/h 29 km/h 78% 0 mm 0 W/m2
20:59 8.7 °C 5.1 °C 1022.2 hPa West 13 km/h 22.5 km/h 78% 0 mm 0 W/m2
21:04 8.6 °C 5 °C 1022.2 hPa West 13.5 km/h 22.5 km/h 78% 0 mm 0 W/m2
21:09 8.6 °C 5 °C 1022.2 hPa West 12.2 km/h 24.1 km/h 78% 0 mm 0 W/m2
21:14 8.6 °C 5 °C 1022.2 hPa West 11.3 km/h 20.9 km/h 78% 0 mm 0 W/m2
21:19 8.6 °C 5 °C 1022.2 hPa West 10.6 km/h 22.5 km/h 78% 0 mm 0 W/m2
21:24 8.6 °C 5 °C 1022.2 hPa West 15.6 km/h 25.7 km/h 78% 0 mm 0 W/m2
21:29 8.6 °C 5 °C 1022.2 hPa West 10.6 km/h 29 km/h 78.2% 0 mm 0 W/m2
21:34 8.5 °C 4.9 °C 1022.2 hPa West 16.6 km/h 25.7 km/h 78.2% 0 mm 0 W/m2
21:39 8.4 °C 5 °C 1022.2 hPa West 11.4 km/h 19.3 km/h 79% 0 mm 0 W/m2
21:44 8.4 °C 5.1 °C 1022.2 hPa West 13.8 km/h 27.4 km/h 79.4% 0 mm 0 W/m2
21:49 8.4 °C 5.2 °C 1022.2 hPa West 11.4 km/h 32.2 km/h 80.2% 0 mm 0 W/m2
21:54 8.4 °C 5.3 °C 1022.2 hPa West 13.5 km/h 22.5 km/h 81% 0 mm 0 W/m2
21:59 8.3 °C 5.2 °C 1022.2 hPa West 17.5 km/h 25.7 km/h 81% 0 mm 0 W/m2
22:04 8.3 °C 5.4 °C 1021.9 hPa West 12.2 km/h 25.7 km/h 82% 0 mm 0 W/m2
22:09 8.2 °C 5.4 °C 1021.9 hPa West 10.8 km/h 19.3 km/h 82.8% 0 mm 0 W/m2
22:14 8.2 °C 5.5 °C 1021.9 hPa West 10 km/h 20.9 km/h 83% 0 mm 0 W/m2
22:19 8.1 °C 5.5 °C 1021.9 hPa West 10.8 km/h 20.9 km/h 83.6% 0 mm 0 W/m2
22:24 8.2 °C 5.7 °C 1021.6 hPa West 10.1 km/h 20.9 km/h 84% 0 mm 0 W/m2
22:29 8.2 °C 5.7 °C 1021.6 hPa West 10.9 km/h 17.7 km/h 84% 0 mm 0 W/m2
22:34 8.2 °C 5.7 °C 1021.6 hPa West 15.1 km/h 22.5 km/h 84.2% 0 mm 0 W/m2
22:39 8.2 °C 5.8 °C 1021.6 hPa West 13 km/h 20.9 km/h 85% 0 mm 0 W/m2
22:44 8.3 °C 5.8 °C 1021.6 hPa West 13.7 km/h 22.5 km/h 85% 0 mm 0 W/m2
22:49 8.3 °C 5.9 °C 1021.2 hPa West 14 km/h 22.5 km/h 85% 0 mm 0 W/m2
22:54 8.3 °C 5.9 °C 1021.2 hPa West 13.5 km/h 20.9 km/h 85% 0 mm 0 W/m2
22:59 8.3 °C 5.9 °C 1021.2 hPa West 11.3 km/h 20.9 km/h 85% 0 mm 0 W/m2
23:04 8.3 °C 5.9 °C 1021.2 hPa West 12.6 km/h 22.5 km/h 85% 0 mm 0 W/m2
23:09 8.4 °C 6.2 °C 1021.2 hPa West 15.4 km/h 29 km/h 85.8% 0 mm 0 W/m2
23:14 8.4 °C 6.1 °C 1021.2 hPa West 11.1 km/h 29 km/h 85.6% 0 mm 0 W/m2
23:19 8.4 °C 6.2 °C 1021.2 hPa WNW 10.6 km/h 22.5 km/h 86% 0 mm 0 W/m2
23:24 8.4 °C 6.2 °C 1021.2 hPa West 10.9 km/h 24.1 km/h 86% 0 mm 0 W/m2
23:29 8.4 °C 6.3 °C 1021.2 hPa West 9.7 km/h 25.7 km/h 86% 0 mm 0 W/m2
23:34 8.5 °C 6.3 °C 1021.2 hPa West 10.9 km/h 25.7 km/h 86% 0 mm 0 W/m2
23:39 8.6 °C 6.4 °C 1021.2 hPa West 10.6 km/h 22.5 km/h 86% 0 mm 0 W/m2
23:44 8.6 °C 6.4 °C 1021.2 hPa West 16.9 km/h 22.5 km/h 86.2% 0 mm 0 W/m2
23:49 8.7 °C 6.7 °C 1021.2 hPa West 14.5 km/h 20.9 km/h 87% 0 mm 0 W/m2
23:54 8.7 °C 6.7 °C 1021.2 hPa West 11.4 km/h 22.5 km/h 87% 0 mm 0 W/m2
23:59 8.7 °C 6.7 °C 1021.2 hPa West 14.8 km/h 22.5 km/h 87% 0 mm 0 W/m2
Bath Spa Weather
Compliments of Weather Underground - 2 mb